createdAt,value
2022-10-09T00:01:31.236Z,4.95
2022-10-09T00:04:00.362Z,4.90
2022-10-09T00:06:34.754Z,4.86
2022-10-09T00:09:03.986Z,4.81
2022-10-09T00:11:34.559Z,4.81
2022-10-09T00:14:03.658Z,4.76
2022-10-09T00:16:30.869Z,4.72
2022-10-09T00:18:58.900Z,4.70
2022-10-09T00:21:30.815Z,4.67
2022-10-09T00:24:03.847Z,4.68
2022-10-09T00:26:32.479Z,4.61
2022-10-09T00:28:59.576Z,4.58
2022-10-09T00:31:26.830Z,4.49
2022-10-09T00:33:53.838Z,4.46
2022-10-09T00:36:26.125Z,4.45
2022-10-09T00:38:55.396Z,4.46
2022-10-09T00:41:33.968Z,4.47
2022-10-09T00:44:53.035Z,4.52
2022-10-09T00:47:47.981Z,4.51
2022-10-09T00:50:38.626Z,4.51
2022-10-09T00:53:05.858Z,4.47
2022-10-09T00:55:37.062Z,4.52
2022-10-09T00:58:05.894Z,4.51
2022-10-09T01:00:33.409Z,4.56
2022-10-09T01:03:00.580Z,4.55
2022-10-09T01:06:17.449Z,4.52
2022-10-09T01:09:10.561Z,4.49
2022-10-09T01:12:04.670Z,4.44
2022-10-09T01:15:07.874Z,4.40
2022-10-09T01:18:12.151Z,4.29
2022-10-09T01:21:06.335Z,4.14
2022-10-09T01:24:21.917Z,3.99
2022-10-09T01:27:19.985Z,3.88
2022-10-09T01:30:01.950Z,3.84
2022-10-09T01:32:39.283Z,3.82
2022-10-09T01:35:11.799Z,3.78
2022-10-09T01:37:46.416Z,3.74
2022-10-09T01:40:18.172Z,3.73
2022-10-09T01:42:47.382Z,3.70
2022-10-09T01:45:16.507Z,3.72
2022-10-09T01:47:43.916Z,3.67
2022-10-09T01:50:32.846Z,3.67
2022-10-09T01:53:10.326Z,3.64
2022-10-09T01:55:51.317Z,3.62
2022-10-09T01:58:41.446Z,3.55
2022-10-09T02:01:31.712Z,3.51
2022-10-09T02:04:07.877Z,3.51
2022-10-09T02:06:40.315Z,3.54
2022-10-09T02:09:16.729Z,3.56
2022-10-09T02:11:55.558Z,3.59
2022-10-09T02:14:22.832Z,3.61
2022-10-09T02:17:08.901Z,3.57
2022-10-09T02:19:52.329Z,3.53
2022-10-09T02:22:33.470Z,3.50
2022-10-09T02:25:07.129Z,3.55
2022-10-09T02:27:35.851Z,3.55
2022-10-09T02:30:06.009Z,3.57
2022-10-09T02:32:33.095Z,3.57
2022-10-09T02:35:00.092Z,3.56
2022-10-09T02:37:27.119Z,3.52
2022-10-09T02:39:54.067Z,3.52
2022-10-09T02:42:22.485Z,3.51
2022-10-09T02:44:49.439Z,3.42
2022-10-09T02:47:16.340Z,3.43
2022-10-09T02:49:43.274Z,3.46
2022-10-09T02:52:10.589Z,3.47
2022-10-09T02:54:37.572Z,3.49
2022-10-09T02:57:04.542Z,3.45
2022-10-09T02:59:32.200Z,3.44
2022-10-09T03:01:59.208Z,3.41
2022-10-09T03:04:26.323Z,3.38
2022-10-09T03:06:53.242Z,3.34
2022-10-09T03:09:20.168Z,3.29
2022-10-09T03:11:47.249Z,3.28
2022-10-09T03:14:14.153Z,3.33
2022-10-09T03:16:41.107Z,3.35
2022-10-09T03:19:07.997Z,3.37
2022-10-09T03:21:35.236Z,3.36
2022-10-09T03:24:02.185Z,3.38
2022-10-09T03:26:29.442Z,3.38
2022-10-09T03:28:56.828Z,3.37
2022-10-09T03:34:14.707Z,3.34
2022-10-09T03:36:42.413Z,3.29
2022-10-09T03:39:09.610Z,3.26
2022-10-09T03:41:36.537Z,3.23
2022-10-09T03:44:03.563Z,3.22
2022-10-09T03:46:30.627Z,3.21
2022-10-09T03:48:57.553Z,3.18
2022-10-09T03:51:24.491Z,3.18
2022-10-09T03:53:51.441Z,3.17
2022-10-09T03:56:18.350Z,3.12
2022-10-09T03:58:45.281Z,3.10
2022-10-09T04:01:12.282Z,3.06
2022-10-09T04:03:39.245Z,3.06
2022-10-09T04:06:06.597Z,3.04
2022-10-09T04:08:33.542Z,3.03
2022-10-09T04:11:01.806Z,3.02
2022-10-09T04:13:28.802Z,2.98
2022-10-09T04:15:57.181Z,2.98
2022-10-09T04:18:25.472Z,2.98
2022-10-09T04:20:56.687Z,2.96
2022-10-09T04:23:27.914Z,2.97
2022-10-09T04:25:59.516Z,2.90
2022-10-09T04:28:30.929Z,2.84
2022-10-09T04:30:59.452Z,2.82
2022-10-09T04:33:27.747Z,2.83
2022-10-09T04:35:56.740Z,2.87
2022-10-09T04:38:25.154Z,2.85
2022-10-09T04:41:05.920Z,2.81
2022-10-09T04:43:35.249Z,2.73
2022-10-09T04:46:10.817Z,2.69
2022-10-09T04:48:45.098Z,2.70
2022-10-09T04:51:14.865Z,2.65
2022-10-09T04:53:42.401Z,2.57
2022-10-09T04:56:17.870Z,2.56
2022-10-09T04:58:47.454Z,2.51
2022-10-09T05:01:23.337Z,2.43
2022-10-09T05:03:52.484Z,2.40
2022-10-09T05:06:22.566Z,2.41
2022-10-09T05:08:51.328Z,2.41
2022-10-09T05:11:24.304Z,2.40
2022-10-09T05:13:56.221Z,2.38
2022-10-09T05:16:29.116Z,2.39
2022-10-09T05:18:59.704Z,2.41
2022-10-09T05:21:29.060Z,2.43
2022-10-09T05:23:56.924Z,2.47
2022-10-09T05:26:26.591Z,2.45
2022-10-09T05:28:54.073Z,2.41
2022-10-09T05:31:29.533Z,2.40
2022-10-09T05:34:00.303Z,2.37
2022-10-09T05:36:28.078Z,2.39
2022-10-09T05:38:56.750Z,2.45
2022-10-09T05:41:23.988Z,2.49
2022-10-09T05:43:51.482Z,2.52
2022-10-09T05:46:25.579Z,2.54
2022-10-09T05:49:06.211Z,2.56
2022-10-09T05:51:38.634Z,2.52
2022-10-09T05:54:07.055Z,2.50
2022-10-09T05:56:38.844Z,2.52
2022-10-09T05:59:14.942Z,2.50
2022-10-09T06:01:46.840Z,2.51
2022-10-09T06:04:19.796Z,2.53
2022-10-09T06:06:49.469Z,2.62
2022-10-09T06:09:23.289Z,2.70
2022-10-09T06:11:52.889Z,2.76
2022-10-09T06:14:22.271Z,2.81
2022-10-09T06:16:50.854Z,2.85
2022-10-09T06:19:20.498Z,2.91
2022-10-09T06:21:49.196Z,3.00
2022-10-09T06:24:29.089Z,3.15
2022-10-09T06:26:58.439Z,3.28
2022-10-09T06:29:25.722Z,3.38
2022-10-09T06:31:53.140Z,3.50
2022-10-09T06:34:20.152Z,3.61
2022-10-09T06:36:47.182Z,3.74
2022-10-09T06:39:14.142Z,3.85
2022-10-09T06:41:41.456Z,3.96
2022-10-09T06:44:16.523Z,4.10
2022-10-09T06:46:49.293Z,4.25
2022-10-09T06:49:16.342Z,4.45
2022-10-09T06:51:43.299Z,4.63
2022-10-09T06:54:16.048Z,4.86
2022-10-09T06:56:43.260Z,5.05
2022-10-09T06:59:12.230Z,5.22
2022-10-09T07:01:39.484Z,5.29
2022-10-09T07:04:14.557Z,5.48
2022-10-09T07:06:47.689Z,5.53
2022-10-09T07:09:16.460Z,5.76
2022-10-09T07:11:49.395Z,5.86
2022-10-09T07:14:17.724Z,5.91
2022-10-09T07:16:49.109Z,6.15
2022-10-09T07:19:18.731Z,6.14
2022-10-09T07:21:49.220Z,6.20
2022-10-09T07:24:20.509Z,6.35
2022-10-09T07:26:48.710Z,6.62
2022-10-09T07:29:19.386Z,6.97
2022-10-09T07:31:47.017Z,7.09
2022-10-09T07:34:14.372Z,7.17
2022-10-09T07:36:41.292Z,7.09
2022-10-09T07:39:08.510Z,7.17
2022-10-09T07:41:35.677Z,7.49
2022-10-09T07:44:03.134Z,7.75
2022-10-09T07:46:33.753Z,7.95
2022-10-09T07:49:03.140Z,8.38
2022-10-09T07:51:32.134Z,8.59
2022-10-09T07:54:01.968Z,8.79
2022-10-09T07:56:34.753Z,8.91
2022-10-09T07:59:07.655Z,8.86
2022-10-09T08:01:36.680Z,9.08
2022-10-09T08:04:05.046Z,9.06
2022-10-09T08:06:33.623Z,9.30
2022-10-09T08:09:04.930Z,9.27
2022-10-09T08:11:32.694Z,9.18
2022-10-09T08:13:59.778Z,9.43
2022-10-09T08:16:28.528Z,9.57
2022-10-09T08:18:59.504Z,9.77
2022-10-09T08:21:28.613Z,9.89
2022-10-09T08:23:59.619Z,9.91
2022-10-09T08:26:30.753Z,9.45
2022-10-09T08:29:05.076Z,9.94
2022-10-09T08:31:32.880Z,10.00
2022-10-09T08:34:03.704Z,10.03
2022-10-09T08:36:32.152Z,10.24
2022-10-09T08:39:00.038Z,10.14
2022-10-09T08:41:54.220Z,10.01
2022-10-09T08:44:29.394Z,10.28
2022-10-09T08:47:37.961Z,10.72
2022-10-09T08:50:20.210Z,10.45
2022-10-09T08:53:14.559Z,10.64
2022-10-09T08:55:56.022Z,10.72
2022-10-09T08:58:34.667Z,10.85
2022-10-09T09:01:24.995Z,11.06
2022-10-09T09:04:33.672Z,11.22
2022-10-09T09:07:50.785Z,10.83
2022-10-09T09:10:50.271Z,10.79
2022-10-09T09:13:57.428Z,10.74
2022-10-09T09:17:08.791Z,11.13
2022-10-09T09:20:47.791Z,11.25
2022-10-09T09:23:17.133Z,11.42
2022-10-09T09:25:46.267Z,11.24
2022-10-09T09:28:35.286Z,11.40
2022-10-09T09:31:28.077Z,11.50
2022-10-09T09:34:28.798Z,11.59
2022-10-09T09:36:59.195Z,11.57
2022-10-09T09:42:23.955Z,11.87
2022-10-09T09:45:07.044Z,12.14
2022-10-09T09:47:50.119Z,11.80
2022-10-09T09:50:48.653Z,11.75
2022-10-09T09:53:39.757Z,11.92
2022-10-09T09:56:09.764Z,12.24
2022-10-09T09:58:53.236Z,12.21
2022-10-09T10:01:29.059Z,12.41
2022-10-09T10:04:02.443Z,12.73
2022-10-09T10:06:44.747Z,12.38
2022-10-09T10:09:19.580Z,12.71
2022-10-09T10:12:03.533Z,12.72
2022-10-09T10:14:32.526Z,12.51
2022-10-09T10:17:03.598Z,12.38
2022-10-09T10:19:38.798Z,12.90
2022-10-09T10:22:25.940Z,12.66
2022-10-09T10:24:58.991Z,12.91
2022-10-09T10:27:44.285Z,13.09
2022-10-09T10:30:19.805Z,13.47
2022-10-09T10:33:19.241Z,13.53
2022-10-09T10:35:53.333Z,13.44
2022-10-09T10:38:29.789Z,13.60
2022-10-09T10:41:21.116Z,13.80
2022-10-09T10:44:14.053Z,13.92
2022-10-09T10:47:02.019Z,13.68
2022-10-09T10:49:34.035Z,12.89
2022-10-09T10:52:08.601Z,12.94
2022-10-09T10:55:14.251Z,13.05
2022-10-09T10:58:12.356Z,13.22
2022-10-09T11:01:18.033Z,13.24
2022-10-09T11:04:28.671Z,12.92
2022-10-09T11:07:25.374Z,12.95
2022-10-09T11:10:22.718Z,13.15
2022-10-09T11:13:20.501Z,13.03
2022-10-09T11:16:20.484Z,13.28
2022-10-09T11:19:18.014Z,13.44
2022-10-09T11:22:41.900Z,13.39
2022-10-09T11:25:32.828Z,13.70
2022-10-09T11:28:22.930Z,13.83
2022-10-09T11:31:21.592Z,13.66
2022-10-09T11:34:16.460Z,13.85
2022-10-09T11:36:45.765Z,13.82
2022-10-09T11:39:25.231Z,13.85
2022-10-09T11:41:55.521Z,13.98
2022-10-09T11:44:41.946Z,14.01
2022-10-09T11:47:42.368Z,14.18
2022-10-09T11:50:36.917Z,14.24
2022-10-09T11:53:19.540Z,14.27
2022-10-09T11:55:48.266Z,14.00
2022-10-09T11:58:26.005Z,14.01
2022-10-09T12:01:09.920Z,13.91
2022-10-09T12:03:40.211Z,13.91
2022-10-09T12:06:17.906Z,14.06
2022-10-09T12:09:00.584Z,14.15
2022-10-09T12:11:33.575Z,14.22
2022-10-09T12:14:07.123Z,13.87
2022-10-09T12:16:43.816Z,13.79
2022-10-09T12:19:39.131Z,13.67
2022-10-09T12:22:31.919Z,13.54
2022-10-09T12:25:30.829Z,13.70
2022-10-09T12:28:00.738Z,13.95
2022-10-09T12:30:46.637Z,14.09
2022-10-09T12:33:52.930Z,14.40
2022-10-09T12:36:28.987Z,14.59
2022-10-09T12:38:56.363Z,14.55
2022-10-09T12:41:34.330Z,14.30
2022-10-09T12:44:14.833Z,14.38
2022-10-09T12:46:41.957Z,14.51
2022-10-09T12:49:25.153Z,14.58
2022-10-09T12:51:58.263Z,14.43
2022-10-09T12:54:29.999Z,14.64
2022-10-09T12:57:00.684Z,14.79
2022-10-09T12:59:29.625Z,14.90
2022-10-09T13:02:00.436Z,14.93
2022-10-09T13:04:34.083Z,14.62
2022-10-09T13:07:19.821Z,14.68
2022-10-09T13:09:47.892Z,14.81
2022-10-09T13:12:28.857Z,14.50
2022-10-09T13:15:36.922Z,14.54
2022-10-09T13:18:23.225Z,14.30
2022-10-09T13:21:29.048Z,14.60
2022-10-09T13:24:13.477Z,15.00
2022-10-09T13:26:44.109Z,15.37
2022-10-09T13:29:14.929Z,15.36
2022-10-09T13:31:45.024Z,14.86
2022-10-09T13:34:16.547Z,14.72
2022-10-09T13:36:43.600Z,14.80
2022-10-09T13:39:14.955Z,14.57
2022-10-09T13:41:45.371Z,14.28
2022-10-09T13:44:12.338Z,14.03
2022-10-09T13:46:39.311Z,14.03
2022-10-09T13:49:06.239Z,13.96
2022-10-09T13:51:33.277Z,14.21
2022-10-09T13:54:00.324Z,14.52
2022-10-09T13:56:27.889Z,14.60
2022-10-09T13:58:55.027Z,14.63
2022-10-09T14:01:22.024Z,14.90
2022-10-09T14:03:49.071Z,15.04
2022-10-09T14:06:16.137Z,15.39
2022-10-09T14:08:43.276Z,15.86
2022-10-09T14:11:10.281Z,16.19
2022-10-09T14:13:37.520Z,16.45
2022-10-09T14:16:08.655Z,16.52
2022-10-09T14:18:35.664Z,16.13
2022-10-09T14:21:15.591Z,16.16
2022-10-09T14:23:43.856Z,16.29
2022-10-09T14:26:10.848Z,16.12
2022-10-09T14:28:38.257Z,15.97
2022-10-09T14:31:07.789Z,15.76
2022-10-09T14:33:35.036Z,15.17
2022-10-09T14:36:18.585Z,15.13
2022-10-09T14:38:47.993Z,15.02
2022-10-09T14:41:18.055Z,14.69
2022-10-09T14:43:46.901Z,14.70
2022-10-09T14:46:17.853Z,14.56
2022-10-09T14:48:48.919Z,14.36
2022-10-09T14:51:22.389Z,14.21
2022-10-09T14:53:50.584Z,13.92
2022-10-09T14:56:21.306Z,13.86
2022-10-09T14:58:48.755Z,13.82
2022-10-09T15:01:20.569Z,13.95
2022-10-09T15:03:48.353Z,13.75
2022-10-09T15:06:20.157Z,13.50
2022-10-09T15:08:47.190Z,13.44
2022-10-09T15:11:14.167Z,13.36
2022-10-09T15:13:41.181Z,13.24
2022-10-09T15:16:15.221Z,13.17
2022-10-09T15:18:44.273Z,13.10
2022-10-09T15:21:33.963Z,12.97
2022-10-09T15:24:04.637Z,12.80
2022-10-09T15:26:36.409Z,12.71
2022-10-09T15:29:07.444Z,12.77
2022-10-09T15:31:39.841Z,12.68
2022-10-09T15:34:15.472Z,12.47
2022-10-09T15:36:44.460Z,12.30
2022-10-09T15:39:14.860Z,12.13
2022-10-09T15:41:43.735Z,11.98
2022-10-09T15:44:20.503Z,11.79
2022-10-09T15:46:49.727Z,11.68
2022-10-09T15:49:17.162Z,11.56
2022-10-09T15:51:44.508Z,11.44
2022-10-09T15:54:14.453Z,11.32
2022-10-09T15:56:42.363Z,11.20
2022-10-09T15:59:13.668Z,11.11
2022-10-09T16:01:40.689Z,11.02
2022-10-09T16:04:09.013Z,10.90
2022-10-09T16:06:36.013Z,10.80
2022-10-09T16:09:04.522Z,10.72
2022-10-09T16:11:32.057Z,10.64
2022-10-09T16:13:59.614Z,10.51
2022-10-09T16:16:28.331Z,10.40
2022-10-09T16:18:57.077Z,10.31
2022-10-09T16:21:28.790Z,10.21
2022-10-09T16:23:59.569Z,10.12
2022-10-09T16:26:29.808Z,10.00
2022-10-09T16:29:00.707Z,9.87
2022-10-09T16:31:34.957Z,9.77
2022-10-09T16:34:06.114Z,9.67
2022-10-09T16:36:34.520Z,9.58
2022-10-09T16:39:01.835Z,9.50
2022-10-09T16:41:28.898Z,9.38
2022-10-09T16:43:58.039Z,9.24
2022-10-09T16:49:24.140Z,9.08
2022-10-09T16:51:52.186Z,9.04
2022-10-09T16:54:19.284Z,8.96
2022-10-09T16:56:46.376Z,8.86
2022-10-09T16:59:14.151Z,8.77
2022-10-09T17:01:45.587Z,8.73
2022-10-09T17:04:14.540Z,8.67
2022-10-09T17:06:45.671Z,8.64
2022-10-09T17:09:14.447Z,8.56
2022-10-09T17:11:43.535Z,8.50
2022-10-09T17:14:12.090Z,8.41
2022-10-09T17:16:43.017Z,8.34
2022-10-09T17:19:10.160Z,8.30
2022-10-09T17:21:37.637Z,8.24
2022-10-09T17:24:07.587Z,8.21
2022-10-09T17:26:35.827Z,8.17
2022-10-09T17:29:04.013Z,8.08
2022-10-09T17:31:31.482Z,8.01
2022-10-09T17:34:04.384Z,7.98
2022-10-09T17:36:37.428Z,7.95
2022-10-09T17:39:09.539Z,7.79
2022-10-09T17:41:36.829Z,7.70
2022-10-09T17:44:04.911Z,7.67
2022-10-09T17:46:32.345Z,7.63
2022-10-09T17:49:00.307Z,7.60
2022-10-09T17:51:31.903Z,7.59
2022-10-09T17:54:10.952Z,7.51
2022-10-09T17:56:40.637Z,7.49
2022-10-09T17:59:09.122Z,7.48
2022-10-09T18:01:39.057Z,7.43
2022-10-09T18:04:06.095Z,7.41
2022-10-09T18:06:35.352Z,7.40
2022-10-09T18:09:04.476Z,7.36
2022-10-09T18:11:31.675Z,7.32
2022-10-09T18:13:58.769Z,7.29
2022-10-09T18:16:35.678Z,7.27
2022-10-09T18:19:21.638Z,7.21
2022-10-09T18:21:50.487Z,7.14
2022-10-09T18:24:18.476Z,7.11
2022-10-09T18:26:45.365Z,7.10
2022-10-09T18:29:12.639Z,7.08
2022-10-09T18:31:39.965Z,7.05
2022-10-09T18:34:07.135Z,6.99
2022-10-09T18:36:35.011Z,6.97
2022-10-09T18:39:09.908Z,6.90
2022-10-09T18:41:37.363Z,6.83
2022-10-09T18:44:07.561Z,6.79
2022-10-09T18:46:42.793Z,6.74
2022-10-09T18:49:17.039Z,6.71
2022-10-09T18:51:47.663Z,6.71
2022-10-09T18:54:18.718Z,6.68
2022-10-09T18:56:46.621Z,6.66
2022-10-09T18:59:20.491Z,6.60
2022-10-09T19:01:47.429Z,6.56
2022-10-09T19:04:14.778Z,6.52
2022-10-09T19:06:41.778Z,6.47
2022-10-09T19:09:08.745Z,6.45
2022-10-09T19:11:36.132Z,6.43
2022-10-09T19:14:03.258Z,6.42
2022-10-09T19:16:34.626Z,6.38
2022-10-09T19:19:02.190Z,6.36
2022-10-09T19:21:29.307Z,6.34
2022-10-09T19:23:56.375Z,6.31
2022-10-09T19:26:23.830Z,6.28
2022-10-09T19:28:50.893Z,6.26
2022-10-09T19:31:18.985Z,6.20
2022-10-09T19:33:46.228Z,6.17
2022-10-09T19:36:14.711Z,6.16
2022-10-09T19:38:43.241Z,6.16
2022-10-09T19:41:15.589Z,6.16
2022-10-09T19:43:43.211Z,6.19
2022-10-09T19:46:20.805Z,6.19
2022-10-09T19:48:47.790Z,6.16
2022-10-09T19:51:21.145Z,6.17
2022-10-09T19:53:48.899Z,6.23
2022-10-09T19:56:22.862Z,6.27
2022-10-09T19:58:50.816Z,6.31
2022-10-09T20:01:24.267Z,6.34
2022-10-09T20:04:07.859Z,6.31
2022-10-09T20:06:42.341Z,6.26
2022-10-09T20:09:12.130Z,6.24
2022-10-09T20:11:39.375Z,6.24
2022-10-09T20:14:07.969Z,6.22
2022-10-09T20:16:35.046Z,6.20
2022-10-09T20:19:04.046Z,6.18
2022-10-09T20:21:34.170Z,6.15
2022-10-09T20:24:01.858Z,6.11
2022-10-09T20:26:31.417Z,6.05
2022-10-09T20:28:58.605Z,6.00
2022-10-09T20:31:28.353Z,5.98
2022-10-09T20:33:55.844Z,5.92
2022-10-09T20:36:30.044Z,5.89
2022-10-09T20:39:07.032Z,5.88
2022-10-09T20:41:35.265Z,5.89
2022-10-09T20:44:04.600Z,5.86
2022-10-09T20:46:36.461Z,5.81
2022-10-09T20:49:08.684Z,5.81
2022-10-09T20:51:38.448Z,5.79
2022-10-09T20:54:08.680Z,5.81
2022-10-09T20:56:36.695Z,5.81
2022-10-09T20:59:04.202Z,5.81
2022-10-09T21:01:31.549Z,5.78
2022-10-09T21:03:59.489Z,5.79
2022-10-09T21:06:27.814Z,5.75
2022-10-09T21:08:55.512Z,5.74
2022-10-09T21:11:24.240Z,5.76
2022-10-09T21:13:52.097Z,5.72
2022-10-09T21:16:24.304Z,5.75
2022-10-09T21:19:02.489Z,5.77
2022-10-09T21:21:31.878Z,5.78
2022-10-09T21:24:01.731Z,5.75
2022-10-09T21:26:35.311Z,5.70
2022-10-09T21:29:06.903Z,5.65
2022-10-09T21:31:34.534Z,5.60
2022-10-09T21:34:02.437Z,5.57
2022-10-09T21:37:19.439Z,5.60
2022-10-09T21:39:36.319Z,5.65
2022-10-09T21:42:03.350Z,5.69
2022-10-09T21:44:30.534Z,5.69
2022-10-09T21:46:57.456Z,5.68
2022-10-09T21:49:28.008Z,5.67
2022-10-09T21:51:56.308Z,5.65
2022-10-09T21:54:24.231Z,5.73
2022-10-09T21:56:51.201Z,5.80
2022-10-09T21:59:18.277Z,5.85
2022-10-09T22:01:45.260Z,5.81
2022-10-09T22:04:12.239Z,5.76
2022-10-09T22:06:41.151Z,5.74
2022-10-09T22:09:08.150Z,5.68
2022-10-09T22:11:35.081Z,5.66
2022-10-09T22:14:02.011Z,5.65
2022-10-09T22:16:28.947Z,5.58
2022-10-09T22:18:56.361Z,5.59
2022-10-09T22:21:23.736Z,5.60
2022-10-09T22:23:51.253Z,5.71
2022-10-09T22:26:22.837Z,5.74
2022-10-09T22:28:50.456Z,5.73
2022-10-09T22:31:27.338Z,5.75
2022-10-09T22:34:00.220Z,5.70
2022-10-09T22:36:33.241Z,5.74
2022-10-09T22:39:06.236Z,5.72
2022-10-09T22:41:36.145Z,5.67
2022-10-09T22:44:08.808Z,5.67
2022-10-09T22:46:44.156Z,5.66
2022-10-09T22:49:16.628Z,5.61
2022-10-09T22:51:45.487Z,5.60
2022-10-09T22:54:13.897Z,5.55
2022-10-09T22:56:45.305Z,5.57
2022-10-09T22:59:17.958Z,5.53
2022-10-09T23:01:53.495Z,5.49
2022-10-09T23:04:23.591Z,5.53
2022-10-09T23:06:55.471Z,5.60
2022-10-09T23:09:28.481Z,5.64
2022-10-09T23:11:57.367Z,5.66
2022-10-09T23:14:26.184Z,5.66
2022-10-09T23:16:53.354Z,5.70
2022-10-09T23:19:20.347Z,5.75
2022-10-09T23:21:48.154Z,5.85
2022-10-09T23:24:17.850Z,5.82
2022-10-09T23:26:52.085Z,5.91
2022-10-09T23:29:21.091Z,5.86
2022-10-09T23:31:52.563Z,5.82
2022-10-09T23:34:20.172Z,5.83
2022-10-09T23:36:47.182Z,5.81
2022-10-09T23:39:14.652Z,5.76
2022-10-09T23:41:41.771Z,5.70
2022-10-09T23:44:08.911Z,5.72
2022-10-09T23:46:37.666Z,5.65
2022-10-09T23:49:05.897Z,5.60
2022-10-09T23:51:33.062Z,5.55
2022-10-09T23:54:00.610Z,5.46
2022-10-09T23:56:35.522Z,5.44
2022-10-09T23:59:06.627Z,5.44
